sensor_id;sensor_type;location;lat;lon;timestamp;P1;durP1;ratioP1;P2;durP2;ratioP2
5549;SDS011;2798;42.716;23.256;2022-09-09T00:06:17;12.07;;;9.57;;
5549;SDS011;2798;42.716;23.256;2022-09-09T00:11:09;18.33;;;9.07;;
5549;SDS011;2798;42.716;23.256;2022-09-09T00:13:39;14.40;;;10.20;;
5549;SDS011;2798;42.716;23.256;2022-09-09T00:21:33;19.00;;;9.37;;
5549;SDS011;2798;42.716;23.256;2022-09-09T00:23:59;15.97;;;10.20;;
5549;SDS011;2798;42.716;23.256;2022-09-09T00:31:25;17.10;;;10.10;;
5549;SDS011;2798;42.716;23.256;2022-09-09T00:33:51;15.10;;;9.97;;
5549;SDS011;2798;42.716;23.256;2022-09-09T00:36:18;12.90;;;10.30;;
5549;SDS011;2798;42.716;23.256;2022-09-09T00:38:47;17.37;;;11.07;;
5549;SDS011;2798;42.716;23.256;2022-09-09T00:43:40;13.07;;;9.87;;
5549;SDS011;2798;42.716;23.256;2022-09-09T00:51:17;11.57;;;9.97;;
5549;SDS011;2798;42.716;23.256;2022-09-09T00:54:08;16.17;;;10.93;;
5549;SDS011;2798;42.716;23.256;2022-09-09T00:56:38;14.60;;;10.17;;
5549;SDS011;2798;42.716;23.256;2022-09-09T01:01:36;13.87;;;10.60;;
5549;SDS011;2798;42.716;23.256;2022-09-09T01:04:01;14.43;;;9.17;;
5549;SDS011;2798;42.716;23.256;2022-09-09T01:06:33;15.93;;;9.03;;
5549;SDS011;2798;42.716;23.256;2022-09-09T01:17:07;15.10;;;10.93;;
5549;SDS011;2798;42.716;23.256;2022-09-09T01:22:05;11.73;;;10.43;;
5549;SDS011;2798;42.716;23.256;2022-09-09T01:24:40;14.07;;;10.07;;
5549;SDS011;2798;42.716;23.256;2022-09-09T01:27:08;13.27;;;10.57;;
5549;SDS011;2798;42.716;23.256;2022-09-09T01:29:35;19.57;;;10.37;;
5549;SDS011;2798;42.716;23.256;2022-09-09T01:32:02;16.50;;;9.60;;
5549;SDS011;2798;42.716;23.256;2022-09-09T01:34:32;15.13;;;10.70;;
5549;SDS011;2798;42.716;23.256;2022-09-09T01:37:05;14.10;;;10.60;;
5549;SDS011;2798;42.716;23.256;2022-09-09T01:39:32;13.00;;;10.77;;
5549;SDS011;2798;42.716;23.256;2022-09-09T01:41:58;12.50;;;9.90;;
5549;SDS011;2798;42.716;23.256;2022-09-09T01:44:24;10.93;;;9.33;;
5549;SDS011;2798;42.716;23.256;2022-09-09T01:46:49;11.40;;;9.90;;
5549;SDS011;2798;42.716;23.256;2022-09-09T01:49:15;12.10;;;9.97;;
5549;SDS011;2798;42.716;23.256;2022-09-09T01:51:41;12.30;;;10.40;;
5549;SDS011;2798;42.716;23.256;2022-09-09T01:54:07;12.40;;;9.30;;
5549;SDS011;2798;42.716;23.256;2022-09-09T01:56:40;13.80;;;9.80;;
5549;SDS011;2798;42.716;23.256;2022-09-09T02:06:52;12.73;;;10.07;;
5549;SDS011;2798;42.716;23.256;2022-09-09T02:09:21;13.03;;;10.07;;
5549;SDS011;2798;42.716;23.256;2022-09-09T02:11:47;11.43;;;9.07;;
5549;SDS011;2798;42.716;23.256;2022-09-09T02:14:16;12.43;;;9.30;;
5549;SDS011;2798;42.716;23.256;2022-09-09T02:17:25;11.00;;;9.80;;
5549;SDS011;2798;42.716;23.256;2022-09-09T02:19:39;12.63;;;10.27;;
5549;SDS011;2798;42.716;23.256;2022-09-09T02:22:07;13.93;;;9.70;;
5549;SDS011;2798;42.716;23.256;2022-09-09T02:24:34;13.47;;;9.53;;
5549;SDS011;2798;42.716;23.256;2022-09-09T02:27:00;14.60;;;10.43;;
5549;SDS011;2798;42.716;23.256;2022-09-09T02:29:31;12.80;;;10.23;;
5549;SDS011;2798;42.716;23.256;2022-09-09T02:31:57;15.50;;;12.10;;
5549;SDS011;2798;42.716;23.256;2022-09-09T02:34:24;16.43;;;12.47;;
5549;SDS011;2798;42.716;23.256;2022-09-09T02:36:53;14.87;;;11.53;;
5549;SDS011;2798;42.716;23.256;2022-09-09T02:39:18;21.47;;;13.53;;
5549;SDS011;2798;42.716;23.256;2022-09-09T02:41:44;14.93;;;11.17;;
5549;SDS011;2798;42.716;23.256;2022-09-09T02:44:16;14.57;;;11.03;;
5549;SDS011;2798;42.716;23.256;2022-09-09T02:49:10;11.90;;;10.07;;
5549;SDS011;2798;42.716;23.256;2022-09-09T02:51:52;13.90;;;10.03;;
5549;SDS011;2798;42.716;23.256;2022-09-09T02:54:33;17.33;;;10.93;;
5549;SDS011;2798;42.716;23.256;2022-09-09T02:57:01;17.50;;;11.63;;
5549;SDS011;2798;42.716;23.256;2022-09-09T02:59:29;15.73;;;10.73;;
5549;SDS011;2798;42.716;23.256;2022-09-09T03:01:55;18.10;;;11.30;;
5549;SDS011;2798;42.716;23.256;2022-09-09T03:04:20;18.80;;;11.03;;
5549;SDS011;2798;42.716;23.256;2022-09-09T03:06:46;13.00;;;10.43;;
5549;SDS011;2798;42.716;23.256;2022-09-09T03:09:11;14.03;;;11.20;;
5549;SDS011;2798;42.716;23.256;2022-09-09T03:11:36;15.43;;;11.30;;
5549;SDS011;2798;42.716;23.256;2022-09-09T03:14:02;23.13;;;11.10;;
5549;SDS011;2798;42.716;23.256;2022-09-09T03:16:28;12.80;;;11.10;;
5549;SDS011;2798;42.716;23.256;2022-09-09T03:18:53;13.57;;;10.23;;
5549;SDS011;2798;42.716;23.256;2022-09-09T03:21:19;14.07;;;11.00;;
5549;SDS011;2798;42.716;23.256;2022-09-09T03:23:44;13.83;;;10.90;;
5549;SDS011;2798;42.716;23.256;2022-09-09T03:26:10;18.80;;;9.33;;
5549;SDS011;2798;42.716;23.256;2022-09-09T03:28:35;18.53;;;10.73;;
5549;SDS011;2798;42.716;23.256;2022-09-09T03:31:01;14.10;;;11.13;;
5549;SDS011;2798;42.716;23.256;2022-09-09T03:33:27;14.90;;;10.80;;
5549;SDS011;2798;42.716;23.256;2022-09-09T03:35:53;21.53;;;9.87;;
5549;SDS011;2798;42.716;23.256;2022-09-09T03:38:20;12.63;;;9.80;;
5549;SDS011;2798;42.716;23.256;2022-09-09T03:40:51;15.73;;;10.30;;
5549;SDS011;2798;42.716;23.256;2022-09-09T03:43:20;14.57;;;11.53;;
5549;SDS011;2798;42.716;23.256;2022-09-09T03:45:46;24.93;;;11.97;;
5549;SDS011;2798;42.716;23.256;2022-09-09T03:48:12;17.27;;;11.40;;
5549;SDS011;2798;42.716;23.256;2022-09-09T03:50:38;18.23;;;11.30;;
5549;SDS011;2798;42.716;23.256;2022-09-09T03:53:03;13.17;;;10.70;;
5549;SDS011;2798;42.716;23.256;2022-09-09T03:55:28;16.20;;;11.23;;
5549;SDS011;2798;42.716;23.256;2022-09-09T03:57:53;21.00;;;12.20;;
5549;SDS011;2798;42.716;23.256;2022-09-09T04:00:19;16.50;;;12.57;;
5549;SDS011;2798;42.716;23.256;2022-09-09T04:02:44;19.97;;;10.73;;
5549;SDS011;2798;42.716;23.256;2022-09-09T04:05:10;17.03;;;11.03;;
5549;SDS011;2798;42.716;23.256;2022-09-09T04:07:36;15.10;;;11.53;;
5549;SDS011;2798;42.716;23.256;2022-09-09T04:10:01;15.70;;;11.13;;
5549;SDS011;2798;42.716;23.256;2022-09-09T04:12:26;14.70;;;11.17;;
5549;SDS011;2798;42.716;23.256;2022-09-09T04:14:51;14.87;;;11.20;;
5549;SDS011;2798;42.716;23.256;2022-09-09T04:17:17;15.30;;;11.50;;
5549;SDS011;2798;42.716;23.256;2022-09-09T04:19:42;18.17;;;12.27;;
5549;SDS011;2798;42.716;23.256;2022-09-09T04:22:07;14.00;;;11.10;;
5549;SDS011;2798;42.716;23.256;2022-09-09T04:24:33;18.73;;;11.47;;
5549;SDS011;2798;42.716;23.256;2022-09-09T04:27:16;12.83;;;11.03;;
5549;SDS011;2798;42.716;23.256;2022-09-09T04:29:42;16.63;;;11.27;;
5549;SDS011;2798;42.716;23.256;2022-09-09T04:32:07;16.27;;;11.60;;
5549;SDS011;2798;42.716;23.256;2022-09-09T04:34:32;25.53;;;12.03;;
5549;SDS011;2798;42.716;23.256;2022-09-09T04:36:58;20.87;;;13.23;;
5549;SDS011;2798;42.716;23.256;2022-09-09T04:39:23;18.83;;;11.60;;
5549;SDS011;2798;42.716;23.256;2022-09-09T04:41:49;23.17;;;11.47;;
5549;SDS011;2798;42.716;23.256;2022-09-09T04:44:14;21.63;;;11.67;;
5549;SDS011;2798;42.716;23.256;2022-09-09T04:46:40;17.57;;;11.30;;
5549;SDS011;2798;42.716;23.256;2022-09-09T04:49:06;26.03;;;12.47;;
5549;SDS011;2798;42.716;23.256;2022-09-09T04:51:31;23.10;;;11.53;;
5549;SDS011;2798;42.716;23.256;2022-09-09T04:53:57;14.30;;;11.33;;
5549;SDS011;2798;42.716;23.256;2022-09-09T04:56:22;18.80;;;10.73;;
5549;SDS011;2798;42.716;23.256;2022-09-09T04:58:47;19.10;;;12.37;;
5549;SDS011;2798;42.716;23.256;2022-09-09T05:01:16;21.70;;;12.50;;
5549;SDS011;2798;42.716;23.256;2022-09-09T05:03:42;15.83;;;12.30;;
5549;SDS011;2798;42.716;23.256;2022-09-09T05:06:10;22.37;;;13.80;;
5549;SDS011;2798;42.716;23.256;2022-09-09T05:08:36;22.27;;;14.37;;
5549;SDS011;2798;42.716;23.256;2022-09-09T05:11:02;21.90;;;11.40;;
5549;SDS011;2798;42.716;23.256;2022-09-09T05:13:28;15.80;;;11.47;;
5549;SDS011;2798;42.716;23.256;2022-09-09T05:15:54;32.57;;;12.20;;
5549;SDS011;2798;42.716;23.256;2022-09-09T05:18:19;17.97;;;11.20;;
5549;SDS011;2798;42.716;23.256;2022-09-09T05:20:44;19.80;;;11.43;;
5549;SDS011;2798;42.716;23.256;2022-09-09T05:23:09;20.40;;;12.90;;
5549;SDS011;2798;42.716;23.256;2022-09-09T05:25:38;29.27;;;11.40;;
5549;SDS011;2798;42.716;23.256;2022-09-09T05:28:03;15.83;;;12.43;;
5549;SDS011;2798;42.716;23.256;2022-09-09T05:30:28;26.53;;;12.10;;
5549;SDS011;2798;42.716;23.256;2022-09-09T05:32:57;29.03;;;13.50;;
5549;SDS011;2798;42.716;23.256;2022-09-09T05:35:22;19.40;;;12.13;;
5549;SDS011;2798;42.716;23.256;2022-09-09T05:37:48;17.53;;;11.13;;
5549;SDS011;2798;42.716;23.256;2022-09-09T05:40:13;14.73;;;11.90;;
5549;SDS011;2798;42.716;23.256;2022-09-09T05:42:38;20.03;;;11.97;;
5549;SDS011;2798;42.716;23.256;2022-09-09T05:45:04;21.90;;;11.50;;
5549;SDS011;2798;42.716;23.256;2022-09-09T05:47:30;22.90;;;12.40;;
5549;SDS011;2798;42.716;23.256;2022-09-09T05:49:55;24.13;;;11.73;;
5549;SDS011;2798;42.716;23.256;2022-09-09T05:52:20;18.13;;;11.20;;
5549;SDS011;2798;42.716;23.256;2022-09-09T05:54:46;17.70;;;12.30;;
5549;SDS011;2798;42.716;23.256;2022-09-09T05:57:11;18.20;;;11.50;;
5549;SDS011;2798;42.716;23.256;2022-09-09T05:59:36;13.10;;;10.40;;
5549;SDS011;2798;42.716;23.256;2022-09-09T06:02:02;15.10;;;10.23;;
5549;SDS011;2798;42.716;23.256;2022-09-09T06:04:27;16.00;;;11.33;;
5549;SDS011;2798;42.716;23.256;2022-09-09T06:06:52;15.30;;;11.40;;
5549;SDS011;2798;42.716;23.256;2022-09-09T06:09:18;24.33;;;12.40;;
5549;SDS011;2798;42.716;23.256;2022-09-09T06:11:43;20.50;;;12.90;;
5549;SDS011;2798;42.716;23.256;2022-09-09T06:14:09;21.50;;;13.10;;
5549;SDS011;2798;42.716;23.256;2022-09-09T06:16:34;18.80;;;12.40;;
5549;SDS011;2798;42.716;23.256;2022-09-09T06:19:00;23.10;;;12.30;;
5549;SDS011;2798;42.716;23.256;2022-09-09T06:21:26;14.07;;;11.60;;
5549;SDS011;2798;42.716;23.256;2022-09-09T06:23:52;14.27;;;11.00;;
5549;SDS011;2798;42.716;23.256;2022-09-09T06:26:28;17.10;;;11.77;;
5549;SDS011;2798;42.716;23.256;2022-09-09T06:28:55;21.70;;;11.30;;
5549;SDS011;2798;42.716;23.256;2022-09-09T06:31:23;17.50;;;11.60;;
5549;SDS011;2798;42.716;23.256;2022-09-09T06:33:49;14.17;;;12.00;;
5549;SDS011;2798;42.716;23.256;2022-09-09T06:36:21;17.93;;;12.10;;
5549;SDS011;2798;42.716;23.256;2022-09-09T06:38:47;20.70;;;12.83;;
5549;SDS011;2798;42.716;23.256;2022-09-09T06:41:13;25.77;;;11.80;;
5549;SDS011;2798;42.716;23.256;2022-09-09T06:43:39;19.73;;;12.63;;
5549;SDS011;2798;42.716;23.256;2022-09-09T06:46:06;16.37;;;11.30;;
5549;SDS011;2798;42.716;23.256;2022-09-09T06:48:33;21.17;;;12.83;;
5549;SDS011;2798;42.716;23.256;2022-09-09T06:51:05;17.00;;;11.57;;
5549;SDS011;2798;42.716;23.256;2022-09-09T06:53:31;18.33;;;11.57;;
5549;SDS011;2798;42.716;23.256;2022-09-09T06:55:59;16.43;;;12.03;;
5549;SDS011;2798;42.716;23.256;2022-09-09T06:58:25;26.27;;;17.13;;
5549;SDS011;2798;42.716;23.256;2022-09-09T07:00:50;25.10;;;11.17;;
5549;SDS011;2798;42.716;23.256;2022-09-09T07:03:15;11.60;;;9.60;;
5549;SDS011;2798;42.716;23.256;2022-09-09T07:05:40;18.00;;;10.77;;
5549;SDS011;2798;42.716;23.256;2022-09-09T07:08:06;13.17;;;10.80;;
5549;SDS011;2798;42.716;23.256;2022-09-09T07:10:31;15.13;;;11.13;;
5549;SDS011;2798;42.716;23.256;2022-09-09T07:12:56;15.03;;;10.50;;
5549;SDS011;2798;42.716;23.256;2022-09-09T07:15:22;18.57;;;10.70;;
5549;SDS011;2798;42.716;23.256;2022-09-09T07:17:48;13.00;;;10.47;;
5549;SDS011;2798;42.716;23.256;2022-09-09T07:20:13;21.63;;;11.50;;
5549;SDS011;2798;42.716;23.256;2022-09-09T07:22:39;22.33;;;10.50;;
5549;SDS011;2798;42.716;23.256;2022-09-09T07:25:05;15.43;;;10.80;;
5549;SDS011;2798;42.716;23.256;2022-09-09T07:27:30;14.60;;;10.57;;
5549;SDS011;2798;42.716;23.256;2022-09-09T07:29:56;19.60;;;10.80;;
5549;SDS011;2798;42.716;23.256;2022-09-09T07:32:22;30.17;;;11.67;;
5549;SDS011;2798;42.716;23.256;2022-09-09T07:34:47;17.33;;;9.87;;
5549;SDS011;2798;42.716;23.256;2022-09-09T07:37:13;14.77;;;9.70;;
5549;SDS011;2798;42.716;23.256;2022-09-09T07:39:38;12.10;;;9.13;;
5549;SDS011;2798;42.716;23.256;2022-09-09T07:42:04;16.83;;;8.17;;
5549;SDS011;2798;42.716;23.256;2022-09-09T07:44:30;12.63;;;8.40;;
5549;SDS011;2798;42.716;23.256;2022-09-09T07:46:57;11.97;;;9.17;;
5549;SDS011;2798;42.716;23.256;2022-09-09T07:49:22;14.30;;;8.70;;
5549;SDS011;2798;42.716;23.256;2022-09-09T07:51:48;12.20;;;8.53;;
5549;SDS011;2798;42.716;23.256;2022-09-09T07:54:16;10.50;;;8.50;;
5549;SDS011;2798;42.716;23.256;2022-09-09T07:56:44;14.03;;;8.70;;
5549;SDS011;2798;42.716;23.256;2022-09-09T07:59:10;14.27;;;7.93;;
5549;SDS011;2798;42.716;23.256;2022-09-09T08:01:41;13.37;;;8.77;;
5549;SDS011;2798;42.716;23.256;2022-09-09T08:04:11;13.23;;;7.93;;
5549;SDS011;2798;42.716;23.256;2022-09-09T08:06:40;17.00;;;9.23;;
5549;SDS011;2798;42.716;23.256;2022-09-09T08:09:06;23.37;;;8.20;;
5549;SDS011;2798;42.716;23.256;2022-09-09T08:11:32;16.73;;;8.77;;
5549;SDS011;2798;42.716;23.256;2022-09-09T08:13:58;14.30;;;7.77;;
5549;SDS011;2798;42.716;23.256;2022-09-09T08:16:24;16.70;;;7.67;;
5549;SDS011;2798;42.716;23.256;2022-09-09T08:18:50;13.90;;;7.00;;
5549;SDS011;2798;42.716;23.256;2022-09-09T08:21:20;12.40;;;7.00;;
5549;SDS011;2798;42.716;23.256;2022-09-09T08:23:46;18.23;;;7.37;;
5549;SDS011;2798;42.716;23.256;2022-09-09T08:28:37;13.93;;;6.93;;
5549;SDS011;2798;42.716;23.256;2022-09-09T08:31:05;12.17;;;7.53;;
5549;SDS011;2798;42.716;23.256;2022-09-09T08:33:31;14.33;;;7.47;;
5549;SDS011;2798;42.716;23.256;2022-09-09T08:35:57;10.70;;;6.53;;
5549;SDS011;2798;42.716;23.256;2022-09-09T08:38:23;8.27;;;7.33;;
5549;SDS011;2798;42.716;23.256;2022-09-09T08:40:49;10.27;;;6.43;;
5549;SDS011;2798;42.716;23.256;2022-09-09T08:43:18;9.17;;;6.50;;
5549;SDS011;2798;42.716;23.256;2022-09-09T08:45:50;11.70;;;6.97;;
5549;SDS011;2798;42.716;23.256;2022-09-09T08:50:48;13.33;;;7.50;;
5549;SDS011;2798;42.716;23.256;2022-09-09T08:53:19;14.13;;;7.20;;
5549;SDS011;2798;42.716;23.256;2022-09-09T08:55:49;14.07;;;6.60;;
5549;SDS011;2798;42.716;23.256;2022-09-09T08:58:26;11.50;;;7.07;;
5549;SDS011;2798;42.716;23.256;2022-09-09T09:08:35;10.43;;;6.80;;
5549;SDS011;2798;42.716;23.256;2022-09-09T09:11:03;13.83;;;6.53;;
5549;SDS011;2798;42.716;23.256;2022-09-09T09:16:06;13.13;;;6.80;;
5549;SDS011;2798;42.716;23.256;2022-09-09T09:18:36;11.10;;;7.20;;
5549;SDS011;2798;42.716;23.256;2022-09-09T09:21:47;11.40;;;6.90;;
5549;SDS011;2798;42.716;23.256;2022-09-09T09:23:58;8.80;;;6.90;;
5549;SDS011;2798;42.716;23.256;2022-09-09T09:26:24;10.97;;;7.10;;
5549;SDS011;2798;42.716;23.256;2022-09-09T09:28:52;7.67;;;6.57;;
5549;SDS011;2798;42.716;23.256;2022-09-09T09:31:19;11.00;;;7.53;;
5549;SDS011;2798;42.716;23.256;2022-09-09T09:33:49;10.83;;;7.47;;
5549;SDS011;2798;42.716;23.256;2022-09-09T09:36:15;12.00;;;7.13;;
5549;SDS011;2798;42.716;23.256;2022-09-09T09:38:51;13.67;;;8.43;;
5549;SDS011;2798;42.716;23.256;2022-09-09T09:41:16;9.07;;;7.97;;
5549;SDS011;2798;42.716;23.256;2022-09-09T09:43:52;14.87;;;7.57;;
5549;SDS011;2798;42.716;23.256;2022-09-09T09:46:19;9.50;;;7.50;;
5549;SDS011;2798;42.716;23.256;2022-09-09T09:48:45;13.13;;;6.33;;
5549;SDS011;2798;42.716;23.256;2022-09-09T09:51:21;10.03;;;6.27;;
5549;SDS011;2798;42.716;23.256;2022-09-09T09:53:47;10.70;;;6.77;;
5549;SDS011;2798;42.716;23.256;2022-09-09T09:56:14;16.63;;;7.17;;
5549;SDS011;2798;42.716;23.256;2022-09-09T10:01:24;11.60;;;7.23;;
5549;SDS011;2798;42.716;23.256;2022-09-09T10:03:51;13.07;;;6.50;;
5549;SDS011;2798;42.716;23.256;2022-09-09T10:06:16;9.53;;;6.90;;
5549;SDS011;2798;42.716;23.256;2022-09-09T10:08:45;12.37;;;7.73;;
5549;SDS011;2798;42.716;23.256;2022-09-09T10:18:38;16.70;;;7.30;;
5549;SDS011;2798;42.716;23.256;2022-09-09T10:21:13;13.37;;;7.40;;
5549;SDS011;2798;42.716;23.256;2022-09-09T10:31:27;13.93;;;8.00;;
5549;SDS011;2798;42.716;23.256;2022-09-09T10:34:01;10.27;;;8.20;;
5549;SDS011;2798;42.716;23.256;2022-09-09T10:36:28;16.50;;;7.73;;
5549;SDS011;2798;42.716;23.256;2022-09-09T10:41:26;14.10;;;8.10;;
5549;SDS011;2798;42.716;23.256;2022-09-09T10:51:57;13.30;;;8.80;;
5549;SDS011;2798;42.716;23.256;2022-09-09T10:56:54;10.07;;;8.07;;
5549;SDS011;2798;42.716;23.256;2022-09-09T10:59:26;10.30;;;7.30;;
5549;SDS011;2798;42.716;23.256;2022-09-09T11:02:03;22.13;;;8.07;;
5549;SDS011;2798;42.716;23.256;2022-09-09T11:04:35;13.10;;;6.83;;
5549;SDS011;2798;42.716;23.256;2022-09-09T11:07:05;12.30;;;7.70;;
5549;SDS011;2798;42.716;23.256;2022-09-09T11:09:33;13.57;;;7.27;;
5549;SDS011;2798;42.716;23.256;2022-09-09T11:12:02;8.40;;;6.60;;
5549;SDS011;2798;42.716;23.256;2022-09-09T11:14:47;13.57;;;7.07;;
5549;SDS011;2798;42.716;23.256;2022-09-09T11:17:24;13.63;;;6.30;;
5549;SDS011;2798;42.716;23.256;2022-09-09T11:19:51;10.93;;;6.40;;
5549;SDS011;2798;42.716;23.256;2022-09-09T11:25:02;11.87;;;7.90;;
5549;SDS011;2798;42.716;23.256;2022-09-09T11:27:43;17.17;;;8.07;;
5549;SDS011;2798;42.716;23.256;2022-09-09T11:32:50;11.00;;;7.70;;
5549;SDS011;2798;42.716;23.256;2022-09-09T11:38:05;8.50;;;6.90;;
5549;SDS011;2798;42.716;23.256;2022-09-09T11:40:36;12.53;;;8.20;;
5549;SDS011;2798;42.716;23.256;2022-09-09T11:43:02;12.70;;;8.10;;
5549;SDS011;2798;42.716;23.256;2022-09-09T11:45:29;12.13;;;7.10;;
5549;SDS011;2798;42.716;23.256;2022-09-09T11:47:56;13.70;;;7.30;;
5549;SDS011;2798;42.716;23.256;2022-09-09T11:52:48;10.60;;;7.60;;
5549;SDS011;2798;42.716;23.256;2022-09-09T12:00:29;17.67;;;7.60;;
5549;SDS011;2798;42.716;23.256;2022-09-09T12:02:55;14.03;;;7.90;;
5549;SDS011;2798;42.716;23.256;2022-09-09T12:05:21;10.97;;;7.30;;
5549;SDS011;2798;42.716;23.256;2022-09-09T12:07:55;12.13;;;7.40;;
5549;SDS011;2798;42.716;23.256;2022-09-09T12:10:33;14.53;;;7.83;;
5549;SDS011;2798;42.716;23.256;2022-09-09T12:15:54;11.67;;;8.03;;
5549;SDS011;2798;42.716;23.256;2022-09-09T12:18:21;16.40;;;8.87;;
5549;SDS011;2798;42.716;23.256;2022-09-09T12:23:52;16.70;;;7.87;;
5549;SDS011;2798;42.716;23.256;2022-09-09T12:34:11;19.13;;;8.43;;
5549;SDS011;2798;42.716;23.256;2022-09-09T12:36:38;16.07;;;8.23;;
5549;SDS011;2798;42.716;23.256;2022-09-09T12:39:24;11.10;;;7.80;;
5549;SDS011;2798;42.716;23.256;2022-09-09T12:41:53;20.57;;;15.63;;
5549;SDS011;2798;42.716;23.256;2022-09-09T12:44:22;17.20;;;8.37;;
5549;SDS011;2798;42.716;23.256;2022-09-09T12:46:48;16.63;;;6.80;;
5549;SDS011;2798;42.716;23.256;2022-09-09T12:51:51;15.53;;;7.90;;
5549;SDS011;2798;42.716;23.256;2022-09-09T12:54:17;14.50;;;7.10;;
5549;SDS011;2798;42.716;23.256;2022-09-09T12:56:45;11.33;;;6.73;;
5549;SDS011;2798;42.716;23.256;2022-09-09T12:59:22;13.23;;;6.77;;
5549;SDS011;2798;42.716;23.256;2022-09-09T13:01:54;9.30;;;6.63;;
5549;SDS011;2798;42.716;23.256;2022-09-09T13:04:19;9.30;;;6.53;;
5549;SDS011;2798;42.716;23.256;2022-09-09T13:06:45;15.63;;;6.43;;
5549;SDS011;2798;42.716;23.256;2022-09-09T13:09:10;12.23;;;7.00;;
5549;SDS011;2798;42.716;23.256;2022-09-09T13:11:37;11.67;;;6.40;;
5549;SDS011;2798;42.716;23.256;2022-09-09T13:14:04;13.87;;;6.67;;
5549;SDS011;2798;42.716;23.256;2022-09-09T13:16:32;13.67;;;6.90;;
5549;SDS011;2798;42.716;23.256;2022-09-09T13:18:58;15.47;;;7.43;;
5549;SDS011;2798;42.716;23.256;2022-09-09T13:21:34;10.33;;;6.27;;
5549;SDS011;2798;42.716;23.256;2022-09-09T13:23:59;12.07;;;6.70;;
5549;SDS011;2798;42.716;23.256;2022-09-09T13:26:28;11.40;;;6.53;;
5549;SDS011;2798;42.716;23.256;2022-09-09T13:28:55;11.70;;;8.00;;
5549;SDS011;2798;42.716;23.256;2022-09-09T13:31:33;15.63;;;6.10;;
5549;SDS011;2798;42.716;23.256;2022-09-09T13:33:58;12.50;;;7.37;;
5549;SDS011;2798;42.716;23.256;2022-09-09T13:36:30;11.30;;;6.93;;
5549;SDS011;2798;42.716;23.256;2022-09-09T13:38:56;12.53;;;7.97;;
5549;SDS011;2798;42.716;23.256;2022-09-09T13:41:22;10.60;;;7.00;;
5549;SDS011;2798;42.716;23.256;2022-09-09T13:43:48;15.03;;;6.67;;
5549;SDS011;2798;42.716;23.256;2022-09-09T13:46:31;8.40;;;6.27;;
5549;SDS011;2798;42.716;23.256;2022-09-09T13:48:57;8.57;;;6.57;;
5549;SDS011;2798;42.716;23.256;2022-09-09T13:51:29;14.50;;;7.07;;
5549;SDS011;2798;42.716;23.256;2022-09-09T13:53:55;9.60;;;6.40;;
5549;SDS011;2798;42.716;23.256;2022-09-09T13:56:20;9.60;;;5.70;;
5549;SDS011;2798;42.716;23.256;2022-09-09T13:58:46;9.13;;;6.07;;
5549;SDS011;2798;42.716;23.256;2022-09-09T14:01:12;9.83;;;6.10;;
5549;SDS011;2798;42.716;23.256;2022-09-09T14:03:38;9.30;;;5.07;;
5549;SDS011;2798;42.716;23.256;2022-09-09T14:06:03;7.40;;;5.50;;
5549;SDS011;2798;42.716;23.256;2022-09-09T14:08:28;11.47;;;6.60;;
5549;SDS011;2798;42.716;23.256;2022-09-09T14:11:01;11.00;;;5.57;;
5549;SDS011;2798;42.716;23.256;2022-09-09T14:13:27;9.37;;;5.50;;
5549;SDS011;2798;42.716;23.256;2022-09-09T14:15:52;11.90;;;5.23;;
5549;SDS011;2798;42.716;23.256;2022-09-09T14:18:18;18.97;;;6.40;;
5549;SDS011;2798;42.716;23.256;2022-09-09T14:20:44;20.77;;;6.10;;
5549;SDS011;2798;42.716;23.256;2022-09-09T14:23:12;12.37;;;5.93;;
5549;SDS011;2798;42.716;23.256;2022-09-09T14:25:41;10.63;;;6.20;;
5549;SDS011;2798;42.716;23.256;2022-09-09T14:28:08;7.73;;;5.57;;
5549;SDS011;2798;42.716;23.256;2022-09-09T14:30:34;11.63;;;5.77;;
5549;SDS011;2798;42.716;23.256;2022-09-09T14:33:00;10.43;;;5.73;;
5549;SDS011;2798;42.716;23.256;2022-09-09T14:35:25;8.40;;;5.83;;
5549;SDS011;2798;42.716;23.256;2022-09-09T14:37:50;13.13;;;6.23;;
5549;SDS011;2798;42.716;23.256;2022-09-09T14:40:16;9.27;;;6.43;;
5549;SDS011;2798;42.716;23.256;2022-09-09T14:42:42;13.30;;;6.20;;
5549;SDS011;2798;42.716;23.256;2022-09-09T14:45:07;13.27;;;6.67;;
5549;SDS011;2798;42.716;23.256;2022-09-09T14:47:32;11.43;;;7.47;;
5549;SDS011;2798;42.716;23.256;2022-09-09T14:49:58;19.17;;;6.87;;
5549;SDS011;2798;42.716;23.256;2022-09-09T14:52:23;11.60;;;7.10;;
5549;SDS011;2798;42.716;23.256;2022-09-09T14:54:49;9.40;;;6.63;;
5549;SDS011;2798;42.716;23.256;2022-09-09T14:57:15;15.60;;;7.80;;
5549;SDS011;2798;42.716;23.256;2022-09-09T14:59:40;16.40;;;7.67;;
5549;SDS011;2798;42.716;23.256;2022-09-09T15:02:07;17.73;;;10.40;;
5549;SDS011;2798;42.716;23.256;2022-09-09T15:04:33;20.47;;;7.80;;
5549;SDS011;2798;42.716;23.256;2022-09-09T15:06:58;13.00;;;7.57;;
5549;SDS011;2798;42.716;23.256;2022-09-09T15:09:23;11.70;;;6.30;;
5549;SDS011;2798;42.716;23.256;2022-09-09T15:11:49;10.27;;;6.10;;
5549;SDS011;2798;42.716;23.256;2022-09-09T15:14:14;12.60;;;5.73;;
5549;SDS011;2798;42.716;23.256;2022-09-09T15:16:39;10.27;;;6.13;;
5549;SDS011;2798;42.716;23.256;2022-09-09T15:19:05;9.93;;;5.90;;
5549;SDS011;2798;42.716;23.256;2022-09-09T15:21:34;11.17;;;6.07;;
5549;SDS011;2798;42.716;23.256;2022-09-09T15:24:00;15.47;;;6.70;;
5549;SDS011;2798;42.716;23.256;2022-09-09T15:26:25;11.50;;;6.10;;
5549;SDS011;2798;42.716;23.256;2022-09-09T15:28:52;23.17;;;7.00;;
5549;SDS011;2798;42.716;23.256;2022-09-09T15:31:22;11.53;;;6.43;;
5549;SDS011;2798;42.716;23.256;2022-09-09T15:33:48;11.30;;;6.33;;
5549;SDS011;2798;42.716;23.256;2022-09-09T15:36:18;10.43;;;6.40;;
5549;SDS011;2798;42.716;23.256;2022-09-09T15:38:43;15.63;;;6.17;;
5549;SDS011;2798;42.716;23.256;2022-09-09T15:41:09;11.93;;;6.40;;
5549;SDS011;2798;42.716;23.256;2022-09-09T15:43:35;13.33;;;6.80;;
5549;SDS011;2798;42.716;23.256;2022-09-09T15:46:02;20.40;;;6.90;;
5549;SDS011;2798;42.716;23.256;2022-09-09T15:48:30;16.47;;;7.70;;
5549;SDS011;2798;42.716;23.256;2022-09-09T15:51:03;10.57;;;7.60;;
5549;SDS011;2798;42.716;23.256;2022-09-09T15:53:29;22.00;;;8.03;;
5549;SDS011;2798;42.716;23.256;2022-09-09T15:55:57;17.43;;;8.10;;
5549;SDS011;2798;42.716;23.256;2022-09-09T15:58:22;12.33;;;7.97;;
5549;SDS011;2798;42.716;23.256;2022-09-09T16:00:48;14.40;;;7.10;;
5549;SDS011;2798;42.716;23.256;2022-09-09T16:03:13;14.57;;;7.80;;
5549;SDS011;2798;42.716;23.256;2022-09-09T16:05:38;12.33;;;7.97;;
5549;SDS011;2798;42.716;23.256;2022-09-09T16:08:03;16.07;;;7.17;;
5549;SDS011;2798;42.716;23.256;2022-09-09T16:10:29;11.57;;;6.97;;
5549;SDS011;2798;42.716;23.256;2022-09-09T16:12:55;13.17;;;7.13;;
5549;SDS011;2798;42.716;23.256;2022-09-09T16:15:21;16.57;;;8.30;;
5549;SDS011;2798;42.716;23.256;2022-09-09T16:17:48;14.30;;;6.90;;
5549;SDS011;2798;42.716;23.256;2022-09-09T16:20:13;11.53;;;7.47;;
5549;SDS011;2798;42.716;23.256;2022-09-09T16:22:39;13.83;;;7.20;;
5549;SDS011;2798;42.716;23.256;2022-09-09T16:25:05;13.60;;;7.77;;
5549;SDS011;2798;42.716;23.256;2022-09-09T16:27:30;10.20;;;7.53;;
5549;SDS011;2798;42.716;23.256;2022-09-09T16:29:56;18.03;;;8.40;;
5549;SDS011;2798;42.716;23.256;2022-09-09T16:32:21;16.87;;;7.97;;
5549;SDS011;2798;42.716;23.256;2022-09-09T16:34:47;17.57;;;8.60;;
5549;SDS011;2798;42.716;23.256;2022-09-09T16:37:12;13.90;;;8.73;;
5549;SDS011;2798;42.716;23.256;2022-09-09T16:39:38;15.37;;;8.60;;
5549;SDS011;2798;42.716;23.256;2022-09-09T16:42:03;13.00;;;8.40;;
5549;SDS011;2798;42.716;23.256;2022-09-09T16:44:29;13.13;;;7.70;;
5549;SDS011;2798;42.716;23.256;2022-09-09T16:46:55;12.27;;;7.97;;
5549;SDS011;2798;42.716;23.256;2022-09-09T16:49:21;12.80;;;7.13;;
5549;SDS011;2798;42.716;23.256;2022-09-09T16:51:49;14.53;;;8.13;;